Yarmouth Airport

CYQI | YQI

Yarmouth , Nova Scotia , Canada

Thursday, October 24th, 2019 | 02:56

Weather

CYQI 240500Z 30010G16KT 15SM SKC 11/09 A2999 RMK SLP157

Charts

No Charts Available

Gates

No Gates Available

Runways

2 Available

Events

No events for this airport


New event